sensor_id;sensor_type;location;lat;lon;timestamp;P1;durP1;ratioP1;P2;durP2;ratioP2
15240;SDS011;7723;52.170;9.978;2023-07-13T00:01:50;4.50;;;2.50;;
15240;SDS011;7723;52.170;9.978;2023-07-13T00:04:21;5.13;;;2.42;;
15240;SDS011;7723;52.170;9.978;2023-07-13T00:06:51;4.45;;;2.72;;
15240;SDS011;7723;52.170;9.978;2023-07-13T00:09:18;7.22;;;2.78;;
15240;SDS011;7723;52.170;9.978;2023-07-13T00:11:49;3.58;;;2.47;;
15240;SDS011;7723;52.170;9.978;2023-07-13T00:14:17;3.22;;;2.67;;
15240;SDS011;7723;52.170;9.978;2023-07-13T00:16:45;2.50;;;2.30;;
15240;SDS011;7723;52.170;9.978;2023-07-13T00:19:13;4.38;;;2.60;;
15240;SDS011;7723;52.170;9.978;2023-07-13T00:21:41;7.63;;;2.83;;
15240;SDS011;7723;52.170;9.978;2023-07-13T00:24:10;4.20;;;2.80;;
15240;SDS011;7723;52.170;9.978;2023-07-13T00:26:39;3.78;;;2.33;;
15240;SDS011;7723;52.170;9.978;2023-07-13T00:29:10;3.10;;;2.50;;
15240;SDS011;7723;52.170;9.978;2023-07-13T00:31:37;5.32;;;3.20;;
15240;SDS011;7723;52.170;9.978;2023-07-13T00:34:06;4.00;;;2.75;;
15240;SDS011;7723;52.170;9.978;2023-07-13T00:36:33;3.55;;;2.60;;
15240;SDS011;7723;52.170;9.978;2023-07-13T00:39:01;5.07;;;2.83;;
15240;SDS011;7723;52.170;9.978;2023-07-13T00:41:29;4.57;;;2.65;;
15240;SDS011;7723;52.170;9.978;2023-07-13T00:43:56;5.88;;;3.15;;
15240;SDS011;7723;52.170;9.978;2023-07-13T00:46:24;3.47;;;2.83;;
15240;SDS011;7723;52.170;9.978;2023-07-13T00:48:53;3.80;;;2.47;;
15240;SDS011;7723;52.170;9.978;2023-07-13T00:51:26;3.72;;;2.90;;
15240;SDS011;7723;52.170;9.978;2023-07-13T00:53:57;4.88;;;2.80;;
15240;SDS011;7723;52.170;9.978;2023-07-13T00:56:26;6.43;;;3.17;;
15240;SDS011;7723;52.170;9.978;2023-07-13T00:58:53;5.53;;;2.80;;
15240;SDS011;7723;52.170;9.978;2023-07-13T01:01:21;5.03;;;2.58;;
15240;SDS011;7723;52.170;9.978;2023-07-13T01:03:48;3.17;;;2.83;;
15240;SDS011;7723;52.170;9.978;2023-07-13T01:06:16;3.85;;;2.75;;
15240;SDS011;7723;52.170;9.978;2023-07-13T01:08:46;4.25;;;2.90;;
15240;SDS011;7723;52.170;9.978;2023-07-13T01:11:17;5.72;;;3.38;;
15240;SDS011;7723;52.170;9.978;2023-07-13T01:13:46;3.67;;;2.60;;
15240;SDS011;7723;52.170;9.978;2023-07-13T01:16:15;5.15;;;2.92;;
15240;SDS011;7723;52.170;9.978;2023-07-13T01:18:48;4.38;;;2.72;;
15240;SDS011;7723;52.170;9.978;2023-07-13T01:21:17;4.18;;;2.80;;
15240;SDS011;7723;52.170;9.978;2023-07-13T01:23:44;4.78;;;2.83;;
15240;SDS011;7723;52.170;9.978;2023-07-13T01:26:12;6.45;;;3.40;;
15240;SDS011;7723;52.170;9.978;2023-07-13T01:28:39;5.57;;;2.80;;
15240;SDS011;7723;52.170;9.978;2023-07-13T01:31:06;3.28;;;2.78;;
15240;SDS011;7723;52.170;9.978;2023-07-13T01:33:36;5.13;;;3.08;;
15240;SDS011;7723;52.170;9.978;2023-07-13T01:36:04;3.05;;;2.75;;
15240;SDS011;7723;52.170;9.978;2023-07-13T01:38:34;4.85;;;3.22;;
15240;SDS011;7723;52.170;9.978;2023-07-13T01:41:02;9.23;;;3.08;;
15240;SDS011;7723;52.170;9.978;2023-07-13T01:43:29;4.80;;;2.80;;
15240;SDS011;7723;52.170;9.978;2023-07-13T01:45:57;4.30;;;3.08;;
15240;SDS011;7723;52.170;9.978;2023-07-13T01:48:24;12.32;;;3.17;;
15240;SDS011;7723;52.170;9.978;2023-07-13T01:50:51;4.47;;;3.35;;
15240;SDS011;7723;52.170;9.978;2023-07-13T01:53:19;5.13;;;2.90;;
15240;SDS011;7723;52.170;9.978;2023-07-13T01:55:47;4.38;;;2.90;;
15240;SDS011;7723;52.170;9.978;2023-07-13T01:58:14;2.63;;;2.40;;
15240;SDS011;7723;52.170;9.978;2023-07-13T02:00:41;4.55;;;2.50;;
15240;SDS011;7723;52.170;9.978;2023-07-13T02:03:09;4.55;;;2.67;;
15240;SDS011;7723;52.170;9.978;2023-07-13T02:05:36;3.92;;;2.42;;
15240;SDS011;7723;52.170;9.978;2023-07-13T02:08:04;5.68;;;2.72;;
15240;SDS011;7723;52.170;9.978;2023-07-13T02:10:31;2.50;;;2.28;;
15240;SDS011;7723;52.170;9.978;2023-07-13T02:13:00;4.53;;;2.58;;
15240;SDS011;7723;52.170;9.978;2023-07-13T02:15:27;3.38;;;2.60;;
15240;SDS011;7723;52.170;9.978;2023-07-13T02:17:54;4.80;;;2.67;;
15240;SDS011;7723;52.170;9.978;2023-07-13T02:20:22;4.68;;;2.08;;
15240;SDS011;7723;52.170;9.978;2023-07-13T02:22:49;4.53;;;2.53;;
15240;SDS011;7723;52.170;9.978;2023-07-13T02:25:16;3.03;;;2.20;;
15240;SDS011;7723;52.170;9.978;2023-07-13T02:27:43;4.43;;;1.88;;
15240;SDS011;7723;52.170;9.978;2023-07-13T02:30:12;5.70;;;2.72;;
15240;SDS011;7723;52.170;9.978;2023-07-13T02:32:39;5.60;;;2.75;;
15240;SDS011;7723;52.170;9.978;2023-07-13T02:35:07;6.00;;;2.90;;
15240;SDS011;7723;52.170;9.978;2023-07-13T02:37:34;2.97;;;2.45;;
15240;SDS011;7723;52.170;9.978;2023-07-13T02:40:01;3.85;;;2.65;;
15240;SDS011;7723;52.170;9.978;2023-07-13T02:42:33;3.50;;;2.40;;
15240;SDS011;7723;52.170;9.978;2023-07-13T02:45:00;4.38;;;2.45;;
15240;SDS011;7723;52.170;9.978;2023-07-13T02:47:28;2.80;;;2.53;;
15240;SDS011;7723;52.170;9.978;2023-07-13T02:49:56;4.80;;;2.55;;
15240;SDS011;7723;52.170;9.978;2023-07-13T02:52:23;4.80;;;2.58;;
15240;SDS011;7723;52.170;9.978;2023-07-13T02:54:51;3.70;;;2.20;;
15240;SDS011;7723;52.170;9.978;2023-07-13T02:57:18;2.65;;;2.25;;
15240;SDS011;7723;52.170;9.978;2023-07-13T02:59:45;6.28;;;3.13;;
15240;SDS011;7723;52.170;9.978;2023-07-13T03:02:12;2.88;;;2.38;;
15240;SDS011;7723;52.170;9.978;2023-07-13T03:04:41;3.30;;;2.03;;
15240;SDS011;7723;52.170;9.978;2023-07-13T03:07:08;7.13;;;2.47;;
15240;SDS011;7723;52.170;9.978;2023-07-13T03:09:35;4.45;;;2.35;;
15240;SDS011;7723;52.170;9.978;2023-07-13T03:12:04;2.72;;;2.13;;
15240;SDS011;7723;52.170;9.978;2023-07-13T03:14:31;2.85;;;2.20;;
15240;SDS011;7723;52.170;9.978;2023-07-13T03:16:59;4.03;;;2.10;;
15240;SDS011;7723;52.170;9.978;2023-07-13T03:19:26;2.97;;;2.10;;
15240;SDS011;7723;52.170;9.978;2023-07-13T03:21:55;4.68;;;2.97;;
15240;SDS011;7723;52.170;9.978;2023-07-13T03:24:22;4.57;;;2.70;;
15240;SDS011;7723;52.170;9.978;2023-07-13T03:26:51;4.00;;;2.50;;
15240;SDS011;7723;52.170;9.978;2023-07-13T03:29:18;4.45;;;2.47;;
15240;SDS011;7723;52.170;9.978;2023-07-13T03:31:45;4.80;;;2.47;;
15240;SDS011;7723;52.170;9.978;2023-07-13T03:34:12;5.10;;;2.70;;
15240;SDS011;7723;52.170;9.978;2023-07-13T03:36:39;4.72;;;2.55;;
15240;SDS011;7723;52.170;9.978;2023-07-13T03:39:08;4.57;;;2.47;;
15240;SDS011;7723;52.170;9.978;2023-07-13T03:41:35;5.28;;;2.60;;
15240;SDS011;7723;52.170;9.978;2023-07-13T03:44:03;7.18;;;2.58;;
15240;SDS011;7723;52.170;9.978;2023-07-13T03:46:30;3.75;;;2.63;;
15240;SDS011;7723;52.170;9.978;2023-07-13T03:48:58;4.47;;;2.65;;
15240;SDS011;7723;52.170;9.978;2023-07-13T03:51:26;5.00;;;2.53;;
15240;SDS011;7723;52.170;9.978;2023-07-13T03:53:53;5.22;;;2.42;;
15240;SDS011;7723;52.170;9.978;2023-07-13T03:56:21;4.38;;;2.50;;
15240;SDS011;7723;52.170;9.978;2023-07-13T03:58:49;3.70;;;2.60;;
15240;SDS011;7723;52.170;9.978;2023-07-13T04:01:17;7.13;;;3.22;;
15240;SDS011;7723;52.170;9.978;2023-07-13T04:03:46;4.93;;;2.78;;
15240;SDS011;7723;52.170;9.978;2023-07-13T04:06:15;5.68;;;2.75;;
15240;SDS011;7723;52.170;9.978;2023-07-13T04:08:47;3.38;;;2.30;;
15240;SDS011;7723;52.170;9.978;2023-07-13T04:11:16;4.30;;;2.45;;
15240;SDS011;7723;52.170;9.978;2023-07-13T04:13:45;4.03;;;2.15;;
15240;SDS011;7723;52.170;9.978;2023-07-13T04:16:13;4.57;;;2.22;;
15240;SDS011;7723;52.170;9.978;2023-07-13T04:18:41;7.70;;;2.22;;
15240;SDS011;7723;52.170;9.978;2023-07-13T04:21:08;4.80;;;2.30;;
15240;SDS011;7723;52.170;9.978;2023-07-13T04:23:36;3.30;;;2.22;;
15240;SDS011;7723;52.170;9.978;2023-07-13T04:26:04;4.13;;;2.03;;
15240;SDS011;7723;52.170;9.978;2023-07-13T04:28:31;3.17;;;1.92;;
15240;SDS011;7723;52.170;9.978;2023-07-13T04:31:00;4.03;;;2.00;;
15240;SDS011;7723;52.170;9.978;2023-07-13T04:33:28;4.18;;;2.08;;
15240;SDS011;7723;52.170;9.978;2023-07-13T04:35:55;4.80;;;2.03;;
15240;SDS011;7723;52.170;9.978;2023-07-13T04:38:24;4.20;;;2.00;;
15240;SDS011;7723;52.170;9.978;2023-07-13T04:40:54;5.40;;;2.65;;
15240;SDS011;7723;52.170;9.978;2023-07-13T04:43:21;5.38;;;2.30;;
15240;SDS011;7723;52.170;9.978;2023-07-13T04:45:49;2.90;;;2.00;;
15240;SDS011;7723;52.170;9.978;2023-07-13T04:48:18;3.38;;;1.88;;
15240;SDS011;7723;52.170;9.978;2023-07-13T04:50:46;3.33;;;2.00;;
15240;SDS011;7723;52.170;9.978;2023-07-13T04:53:15;4.88;;;1.88;;
15240;SDS011;7723;52.170;9.978;2023-07-13T04:55:42;3.95;;;2.00;;
15240;SDS011;7723;52.170;9.978;2023-07-13T04:58:10;5.30;;;1.90;;
15240;SDS011;7723;52.170;9.978;2023-07-13T05:00:37;4.15;;;2.08;;
15240;SDS011;7723;52.170;9.978;2023-07-13T05:03:04;3.78;;;1.50;;
15240;SDS011;7723;52.170;9.978;2023-07-13T05:05:33;4.40;;;1.83;;
15240;SDS011;7723;52.170;9.978;2023-07-13T05:08:01;3.25;;;1.95;;
15240;SDS011;7723;52.170;9.978;2023-07-13T05:10:28;4.53;;;1.80;;
15240;SDS011;7723;52.170;9.978;2023-07-13T05:12:55;3.65;;;1.63;;
15240;SDS011;7723;52.170;9.978;2023-07-13T05:15:23;3.47;;;1.73;;
15240;SDS011;7723;52.170;9.978;2023-07-13T05:17:50;3.67;;;1.63;;
15240;SDS011;7723;52.170;9.978;2023-07-13T05:20:18;1.67;;;1.50;;
15240;SDS011;7723;52.170;9.978;2023-07-13T05:22:47;3.50;;;1.92;;
15240;SDS011;7723;52.170;9.978;2023-07-13T05:25:14;3.72;;;1.70;;
15240;SDS011;7723;52.170;9.978;2023-07-13T05:27:41;3.38;;;1.90;;
15240;SDS011;7723;52.170;9.978;2023-07-13T05:30:11;2.63;;;1.70;;
15240;SDS011;7723;52.170;9.978;2023-07-13T05:32:38;3.83;;;1.88;;
15240;SDS011;7723;52.170;9.978;2023-07-13T05:35:06;3.15;;;2.08;;
15240;SDS011;7723;52.170;9.978;2023-07-13T05:37:33;4.20;;;2.42;;
15240;SDS011;7723;52.170;9.978;2023-07-13T05:40:02;3.25;;;1.80;;
15240;SDS011;7723;52.170;9.978;2023-07-13T05:42:30;3.88;;;1.83;;
15240;SDS011;7723;52.170;9.978;2023-07-13T05:44:57;5.18;;;2.20;;
15240;SDS011;7723;52.170;9.978;2023-07-13T05:47:24;4.65;;;1.92;;
15240;SDS011;7723;52.170;9.978;2023-07-13T05:49:51;4.40;;;2.03;;
15240;SDS011;7723;52.170;9.978;2023-07-13T05:52:19;3.60;;;2.13;;
15240;SDS011;7723;52.170;9.978;2023-07-13T05:54:46;3.17;;;2.22;;
15240;SDS011;7723;52.170;9.978;2023-07-13T05:57:14;6.47;;;2.15;;
15240;SDS011;7723;52.170;9.978;2023-07-13T05:59:41;7.90;;;2.60;;
15240;SDS011;7723;52.170;9.978;2023-07-13T06:02:08;2.97;;;1.90;;
15240;SDS011;7723;52.170;9.978;2023-07-13T06:04:36;7.82;;;1.95;;
15240;SDS011;7723;52.170;9.978;2023-07-13T06:07:04;5.38;;;2.05;;
15240;SDS011;7723;52.170;9.978;2023-07-13T06:09:31;5.30;;;2.17;;
15240;SDS011;7723;52.170;9.978;2023-07-13T06:11:58;2.67;;;1.80;;
15240;SDS011;7723;52.170;9.978;2023-07-13T06:14:27;5.20;;;2.03;;
15240;SDS011;7723;52.170;9.978;2023-07-13T06:16:54;4.88;;;2.10;;
15240;SDS011;7723;52.170;9.978;2023-07-13T06:19:21;3.60;;;1.77;;
15240;SDS011;7723;52.170;9.978;2023-07-13T06:21:48;3.38;;;2.20;;
15240;SDS011;7723;52.170;9.978;2023-07-13T06:24:15;4.32;;;2.38;;
15240;SDS011;7723;52.170;9.978;2023-07-13T06:26:42;4.03;;;2.00;;
15240;SDS011;7723;52.170;9.978;2023-07-13T06:29:09;4.57;;;2.00;;
15240;SDS011;7723;52.170;9.978;2023-07-13T06:31:38;3.03;;;1.77;;
15240;SDS011;7723;52.170;9.978;2023-07-13T06:34:05;4.00;;;1.90;;
15240;SDS011;7723;52.170;9.978;2023-07-13T06:36:32;5.80;;;2.30;;
15240;SDS011;7723;52.170;9.978;2023-07-13T06:39:01;3.80;;;1.60;;
15240;SDS011;7723;52.170;9.978;2023-07-13T06:41:28;3.00;;;1.73;;
15240;SDS011;7723;52.170;9.978;2023-07-13T06:43:55;2.20;;;1.55;;
15240;SDS011;7723;52.170;9.978;2023-07-13T06:46:23;4.28;;;1.70;;
15240;SDS011;7723;52.170;9.978;2023-07-13T06:48:52;4.65;;;2.25;;
15240;SDS011;7723;52.170;9.978;2023-07-13T06:51:22;2.40;;;1.30;;
15240;SDS011;7723;52.170;9.978;2023-07-13T06:53:51;3.00;;;1.40;;
15240;SDS011;7723;52.170;9.978;2023-07-13T06:56:19;1.80;;;1.20;;
15240;SDS011;7723;52.170;9.978;2023-07-13T06:58:47;3.17;;;1.50;;
15240;SDS011;7723;52.170;9.978;2023-07-13T07:01:17;5.85;;;2.00;;
15240;SDS011;7723;52.170;9.978;2023-07-13T07:03:44;2.30;;;1.20;;
15240;SDS011;7723;52.170;9.978;2023-07-13T07:06:15;2.47;;;1.40;;
15240;SDS011;7723;52.170;9.978;2023-07-13T07:08:44;5.00;;;1.75;;
15240;SDS011;7723;52.170;9.978;2023-07-13T07:11:13;2.80;;;1.50;;
15240;SDS011;7723;52.170;9.978;2023-07-13T07:13:47;5.75;;;2.13;;
15240;SDS011;7723;52.170;9.978;2023-07-13T07:16:14;4.05;;;1.60;;
15240;SDS011;7723;52.170;9.978;2023-07-13T07:18:42;5.15;;;1.48;;
15240;SDS011;7723;52.170;9.978;2023-07-13T07:21:09;3.92;;;1.60;;
15240;SDS011;7723;52.170;9.978;2023-07-13T07:23:37;4.63;;;1.55;;
15240;SDS011;7723;52.170;9.978;2023-07-13T07:26:05;1.63;;;1.20;;
15240;SDS011;7723;52.170;9.978;2023-07-13T07:28:33;4.43;;;1.80;;
15240;SDS011;7723;52.170;9.978;2023-07-13T07:31:00;2.67;;;1.40;;
15240;SDS011;7723;52.170;9.978;2023-07-13T07:33:28;3.33;;;1.45;;
15240;SDS011;7723;52.170;9.978;2023-07-13T07:35:55;3.95;;;1.33;;
15240;SDS011;7723;52.170;9.978;2023-07-13T07:38:22;2.25;;;1.33;;
15240;SDS011;7723;52.170;9.978;2023-07-13T07:40:51;3.80;;;1.42;;
15240;SDS011;7723;52.170;9.978;2023-07-13T07:43:18;4.47;;;2.08;;
15240;SDS011;7723;52.170;9.978;2023-07-13T07:45:45;2.45;;;1.00;;
15240;SDS011;7723;52.170;9.978;2023-07-13T07:48:13;3.30;;;1.58;;
15240;SDS011;7723;52.170;9.978;2023-07-13T07:50:40;3.00;;;1.20;;
15240;SDS011;7723;52.170;9.978;2023-07-13T07:53:07;1.38;;;1.08;;
15240;SDS011;7723;52.170;9.978;2023-07-13T07:55:35;2.67;;;1.73;;
15240;SDS011;7723;52.170;9.978;2023-07-13T07:58:04;2.35;;;1.65;;
15240;SDS011;7723;52.170;9.978;2023-07-13T08:00:32;2.72;;;1.60;;
15240;SDS011;7723;52.170;9.978;2023-07-13T08:03:00;2.70;;;1.63;;
15240;SDS011;7723;52.170;9.978;2023-07-13T08:05:29;3.38;;;1.27;;
15240;SDS011;7723;52.170;9.978;2023-07-13T08:07:56;3.38;;;1.38;;
15240;SDS011;7723;52.170;9.978;2023-07-13T08:10:23;3.72;;;1.63;;
15240;SDS011;7723;52.170;9.978;2023-07-13T08:12:51;5.70;;;1.50;;
15240;SDS011;7723;52.170;9.978;2023-07-13T08:15:19;6.03;;;1.77;;
15240;SDS011;7723;52.170;9.978;2023-07-13T08:17:47;5.50;;;1.85;;
15240;SDS011;7723;52.170;9.978;2023-07-13T08:20:15;2.90;;;1.45;;
15240;SDS011;7723;52.170;9.978;2023-07-13T08:22:42;3.10;;;1.45;;
15240;SDS011;7723;52.170;9.978;2023-07-13T08:25:09;1.85;;;1.42;;
15240;SDS011;7723;52.170;9.978;2023-07-13T08:27:36;3.72;;;1.30;;
15240;SDS011;7723;52.170;9.978;2023-07-13T08:30:04;2.10;;;1.25;;
15240;SDS011;7723;52.170;9.978;2023-07-13T08:32:35;4.97;;;1.38;;
15240;SDS011;7723;52.170;9.978;2023-07-13T08:35:03;4.13;;;1.38;;
15240;SDS011;7723;52.170;9.978;2023-07-13T08:37:31;1.85;;;1.20;;
15240;SDS011;7723;52.170;9.978;2023-07-13T08:39:58;2.38;;;1.45;;
15240;SDS011;7723;52.170;9.978;2023-07-13T08:42:30;2.92;;;1.55;;
15240;SDS011;7723;52.170;9.978;2023-07-13T08:45:13;3.47;;;1.63;;
15240;SDS011;7723;52.170;9.978;2023-07-13T08:47:47;3.15;;;1.17;;
15240;SDS011;7723;52.170;9.978;2023-07-13T08:50:19;6.03;;;1.05;;
15240;SDS011;7723;52.170;9.978;2023-07-13T08:52:51;4.53;;;1.40;;
15240;SDS011;7723;52.170;9.978;2023-07-13T08:55:22;1.80;;;1.25;;
15240;SDS011;7723;52.170;9.978;2023-07-13T08:57:55;4.82;;;1.25;;
15240;SDS011;7723;52.170;9.978;2023-07-13T09:00:33;5.00;;;1.88;;
15240;SDS011;7723;52.170;9.978;2023-07-13T09:03:07;5.05;;;1.50;;
15240;SDS011;7723;52.170;9.978;2023-07-13T09:05:45;4.18;;;1.77;;
15240;SDS011;7723;52.170;9.978;2023-07-13T09:08:23;3.15;;;1.58;;
15240;SDS011;7723;52.170;9.978;2023-07-13T09:11:00;3.95;;;1.70;;
15240;SDS011;7723;52.170;9.978;2023-07-13T09:13:39;3.15;;;1.40;;
15240;SDS011;7723;52.170;9.978;2023-07-13T09:16:12;5.38;;;1.80;;
15240;SDS011;7723;52.170;9.978;2023-07-13T09:18:42;2.83;;;1.60;;
15240;SDS011;7723;52.170;9.978;2023-07-13T09:21:13;2.60;;;1.30;;
15240;SDS011;7723;52.170;9.978;2023-07-13T09:23:43;3.33;;;1.45;;
15240;SDS011;7723;52.170;9.978;2023-07-13T09:26:12;2.38;;;1.33;;
15240;SDS011;7723;52.170;9.978;2023-07-13T09:28:42;2.70;;;1.75;;
15240;SDS011;7723;52.170;9.978;2023-07-13T09:31:13;3.67;;;1.80;;
15240;SDS011;7723;52.170;9.978;2023-07-13T09:33:44;5.03;;;2.10;;
15240;SDS011;7723;52.170;9.978;2023-07-13T09:36:17;1.80;;;1.45;;
15240;SDS011;7723;52.170;9.978;2023-07-13T09:38:46;3.35;;;1.73;;
15240;SDS011;7723;52.170;9.978;2023-07-13T09:41:19;3.40;;;2.20;;
15240;SDS011;7723;52.170;9.978;2023-07-13T09:44:06;2.28;;;1.70;;
15240;SDS011;7723;52.170;9.978;2023-07-13T09:46:36;1.85;;;1.63;;
15240;SDS011;7723;52.170;9.978;2023-07-13T09:49:06;3.65;;;1.83;;
15240;SDS011;7723;52.170;9.978;2023-07-13T09:51:35;2.38;;;1.80;;
15240;SDS011;7723;52.170;9.978;2023-07-13T09:54:04;2.65;;;1.85;;
15240;SDS011;7723;52.170;9.978;2023-07-13T09:56:31;4.07;;;2.40;;
15240;SDS011;7723;52.170;9.978;2023-07-13T09:58:59;2.63;;;2.17;;
15240;SDS011;7723;52.170;9.978;2023-07-13T10:01:33;2.45;;;2.00;;
15240;SDS011;7723;52.170;9.978;2023-07-13T10:04:01;4.35;;;2.15;;
15240;SDS011;7723;52.170;9.978;2023-07-13T10:06:38;3.03;;;2.05;;
15240;SDS011;7723;52.170;9.978;2023-07-13T10:09:07;2.28;;;1.90;;
15240;SDS011;7723;52.170;9.978;2023-07-13T10:11:36;2.10;;;1.83;;
15240;SDS011;7723;52.170;9.978;2023-07-13T10:14:10;2.17;;;1.83;;
15240;SDS011;7723;52.170;9.978;2023-07-13T10:16:41;3.63;;;2.05;;
15240;SDS011;7723;52.170;9.978;2023-07-13T10:19:11;5.10;;;2.50;;
15240;SDS011;7723;52.170;9.978;2023-07-13T10:21:45;3.08;;;2.00;;
15240;SDS011;7723;52.170;9.978;2023-07-13T10:24:18;4.03;;;2.40;;
15240;SDS011;7723;52.170;9.978;2023-07-13T10:26:48;3.30;;;2.22;;
15240;SDS011;7723;52.170;9.978;2023-07-13T10:29:20;2.10;;;1.92;;
15240;SDS011;7723;52.170;9.978;2023-07-13T10:31:50;2.50;;;2.30;;
15240;SDS011;7723;52.170;9.978;2023-07-13T10:34:18;3.95;;;2.20;;
15240;SDS011;7723;52.170;9.978;2023-07-13T10:36:47;5.85;;;2.55;;
15240;SDS011;7723;52.170;9.978;2023-07-13T10:39:16;3.65;;;1.98;;
15240;SDS011;7723;52.170;9.978;2023-07-13T10:41:46;3.78;;;2.20;;
15240;SDS011;7723;52.170;9.978;2023-07-13T10:44:18;4.43;;;1.67;;
15240;SDS011;7723;52.170;9.978;2023-07-13T10:46:51;2.40;;;1.73;;
15240;SDS011;7723;52.170;9.978;2023-07-13T10:49:20;2.50;;;1.90;;
15240;SDS011;7723;52.170;9.978;2023-07-13T10:51:50;5.07;;;2.30;;
15240;SDS011;7723;52.170;9.978;2023-07-13T10:54:19;3.13;;;1.80;;
15240;SDS011;7723;52.170;9.978;2023-07-13T10:56:52;2.85;;;1.50;;
15240;SDS011;7723;52.170;9.978;2023-07-13T10:59:34;3.05;;;1.77;;
15240;SDS011;7723;52.170;9.978;2023-07-13T11:02:09;2.88;;;1.75;;
15240;SDS011;7723;52.170;9.978;2023-07-13T11:04:40;4.15;;;2.00;;
15240;SDS011;7723;52.170;9.978;2023-07-13T11:07:24;6.03;;;1.90;;
15240;SDS011;7723;52.170;9.978;2023-07-13T11:09:53;2.38;;;1.63;;
15240;SDS011;7723;52.170;9.978;2023-07-13T11:15:30;5.15;;;2.13;;
15240;SDS011;7723;52.170;9.978;2023-07-13T11:18:19;3.58;;;1.75;;
15240;SDS011;7723;52.170;9.978;2023-07-13T11:20:48;3.15;;;2.00;;
15240;SDS011;7723;52.170;9.978;2023-07-13T11:23:27;4.50;;;2.13;;
15240;SDS011;7723;52.170;9.978;2023-07-13T11:25:57;4.00;;;2.05;;
15240;SDS011;7723;52.170;9.978;2023-07-13T11:28:26;5.00;;;1.83;;
15240;SDS011;7723;52.170;9.978;2023-07-13T11:31:01;5.00;;;1.73;;
15240;SDS011;7723;52.170;9.978;2023-07-13T11:33:55;3.22;;;2.20;;
15240;SDS011;7723;52.170;9.978;2023-07-13T11:36:28;4.35;;;2.15;;
15240;SDS011;7723;52.170;9.978;2023-07-13T11:39:02;5.40;;;2.00;;
15240;SDS011;7723;52.170;9.978;2023-07-13T11:41:34;4.57;;;1.95;;
15240;SDS011;7723;52.170;9.978;2023-07-13T11:44:06;4.10;;;1.92;;
15240;SDS011;7723;52.170;9.978;2023-07-13T11:46:37;4.25;;;2.25;;
15240;SDS011;7723;52.170;9.978;2023-07-13T11:49:05;3.33;;;2.00;;
15240;SDS011;7723;52.170;9.978;2023-07-13T11:51:33;2.42;;;1.80;;
15240;SDS011;7723;52.170;9.978;2023-07-13T11:54:04;2.45;;;1.80;;
15240;SDS011;7723;52.170;9.978;2023-07-13T11:56:33;3.95;;;1.80;;
15240;SDS011;7723;52.170;9.978;2023-07-13T11:59:03;2.97;;;1.52;;
15240;SDS011;7723;52.170;9.978;2023-07-13T12:01:33;3.25;;;1.92;;
15240;SDS011;7723;52.170;9.978;2023-07-13T12:04:03;4.63;;;2.20;;
15240;SDS011;7723;52.170;9.978;2023-07-13T12:06:32;3.20;;;1.95;;
15240;SDS011;7723;52.170;9.978;2023-07-13T12:09:08;3.08;;;1.83;;
15240;SDS011;7723;52.170;9.978;2023-07-13T12:11:41;4.00;;;1.90;;
15240;SDS011;7723;52.170;9.978;2023-07-13T12:14:13;4.88;;;2.17;;
15240;SDS011;7723;52.170;9.978;2023-07-13T12:16:42;3.25;;;1.90;;
15240;SDS011;7723;52.170;9.978;2023-07-13T12:19:14;4.15;;;2.00;;
15240;SDS011;7723;52.170;9.978;2023-07-13T12:21:44;3.22;;;1.80;;
15240;SDS011;7723;52.170;9.978;2023-07-13T12:24:18;3.10;;;2.25;;
15240;SDS011;7723;52.170;9.978;2023-07-13T12:26:50;1.85;;;1.67;;
15240;SDS011;7723;52.170;9.978;2023-07-13T12:29:19;1.92;;;1.67;;
15240;SDS011;7723;52.170;9.978;2023-07-13T12:31:47;4.95;;;2.00;;
15240;SDS011;7723;52.170;9.978;2023-07-13T12:34:18;2.78;;;1.75;;
15240;SDS011;7723;52.170;9.978;2023-07-13T12:36:48;2.33;;;1.52;;
15240;SDS011;7723;52.170;9.978;2023-07-13T12:39:18;1.67;;;1.58;;
15240;SDS011;7723;52.170;9.978;2023-07-13T12:41:48;3.95;;;1.80;;
15240;SDS011;7723;52.170;9.978;2023-07-13T12:44:18;2.13;;;1.77;;
15240;SDS011;7723;52.170;9.978;2023-07-13T12:46:54;3.95;;;1.88;;
15240;SDS011;7723;52.170;9.978;2023-07-13T12:49:25;2.08;;;1.75;;
15240;SDS011;7723;52.170;9.978;2023-07-13T12:51:58;8.25;;;2.13;;
15240;SDS011;7723;52.170;9.978;2023-07-13T12:54:28;2.22;;;1.80;;
15240;SDS011;7723;52.170;9.978;2023-07-13T12:56:58;4.65;;;2.25;;
15240;SDS011;7723;52.170;9.978;2023-07-13T12:59:29;3.45;;;1.88;;
15240;SDS011;7723;52.170;9.978;2023-07-13T13:02:01;1.90;;;1.70;;
15240;SDS011;7723;52.170;9.978;2023-07-13T13:04:41;2.97;;;1.70;;
15240;SDS011;7723;52.170;9.978;2023-07-13T13:07:09;4.72;;;1.88;;
15240;SDS011;7723;52.170;9.978;2023-07-13T13:09:38;2.92;;;2.03;;
15240;SDS011;7723;52.170;9.978;2023-07-13T13:12:05;1.98;;;1.77;;
15240;SDS011;7723;52.170;9.978;2023-07-13T13:14:33;3.25;;;2.25;;
15240;SDS011;7723;52.170;9.978;2023-07-13T13:17:01;6.72;;;2.25;;
15240;SDS011;7723;52.170;9.978;2023-07-13T13:19:29;3.65;;;2.25;;
15240;SDS011;7723;52.170;9.978;2023-07-13T13:21:56;4.50;;;1.88;;
15240;SDS011;7723;52.170;9.978;2023-07-13T13:24:26;3.55;;;2.30;;
15240;SDS011;7723;52.170;9.978;2023-07-13T13:26:55;3.60;;;2.35;;
15240;SDS011;7723;52.170;9.978;2023-07-13T13:29:23;2.28;;;2.08;;
15240;SDS011;7723;52.170;9.978;2023-07-13T13:31:51;3.60;;;2.22;;
15240;SDS011;7723;52.170;9.978;2023-07-13T13:34:19;4.30;;;2.50;;
15240;SDS011;7723;52.170;9.978;2023-07-13T13:36:48;2.95;;;2.10;;
15240;SDS011;7723;52.170;9.978;2023-07-13T13:39:20;2.22;;;2.03;;
15240;SDS011;7723;52.170;9.978;2023-07-13T13:41:49;2.50;;;2.28;;
15240;SDS011;7723;52.170;9.978;2023-07-13T13:44:20;2.25;;;2.03;;
15240;SDS011;7723;52.170;9.978;2023-07-13T13:46:49;3.28;;;2.20;;
15240;SDS011;7723;52.170;9.978;2023-07-13T13:49:20;3.00;;;2.22;;
15240;SDS011;7723;52.170;9.978;2023-07-13T13:51:50;3.30;;;2.22;;
15240;SDS011;7723;52.170;9.978;2023-07-13T13:54:17;3.13;;;2.15;;
15240;SDS011;7723;52.170;9.978;2023-07-13T13:56:46;3.90;;;2.30;;
15240;SDS011;7723;52.170;9.978;2023-07-13T13:59:14;2.30;;;2.10;;
15240;SDS011;7723;52.170;9.978;2023-07-13T14:01:44;3.40;;;2.05;;
15240;SDS011;7723;52.170;9.978;2023-07-13T14:04:14;3.35;;;2.17;;
15240;SDS011;7723;52.170;9.978;2023-07-13T14:06:44;3.38;;;2.00;;
15240;SDS011;7723;52.170;9.978;2023-07-13T14:09:12;2.75;;;2.20;;
15240;SDS011;7723;52.170;9.978;2023-07-13T14:11:40;2.50;;;2.10;;
15240;SDS011;7723;52.170;9.978;2023-07-13T14:14:09;4.68;;;2.10;;
15240;SDS011;7723;52.170;9.978;2023-07-13T14:16:40;5.57;;;2.70;;
15240;SDS011;7723;52.170;9.978;2023-07-13T14:19:11;3.08;;;2.30;;
15240;SDS011;7723;52.170;9.978;2023-07-13T14:21:40;2.85;;;2.53;;
15240;SDS011;7723;52.170;9.978;2023-07-13T14:24:07;3.00;;;2.25;;
15240;SDS011;7723;52.170;9.978;2023-07-13T14:26:36;5.38;;;2.70;;
15240;SDS011;7723;52.170;9.978;2023-07-13T14:29:04;4.18;;;2.70;;
15240;SDS011;7723;52.170;9.978;2023-07-13T14:31:38;2.72;;;2.00;;
15240;SDS011;7723;52.170;9.978;2023-07-13T14:34:05;3.60;;;1.98;;
15240;SDS011;7723;52.170;9.978;2023-07-13T14:36:36;3.75;;;1.65;;
15240;SDS011;7723;52.170;9.978;2023-07-13T14:39:10;14.30;;;3.58;;
15240;SDS011;7723;52.170;9.978;2023-07-13T14:41:39;7.60;;;2.75;;
15240;SDS011;7723;52.170;9.978;2023-07-13T14:44:11;5.72;;;2.53;;
15240;SDS011;7723;52.170;9.978;2023-07-13T14:46:39;2.75;;;2.40;;
15240;SDS011;7723;52.170;9.978;2023-07-13T14:49:07;3.83;;;2.42;;
15240;SDS011;7723;52.170;9.978;2023-07-13T14:51:42;3.72;;;2.40;;
15240;SDS011;7723;52.170;9.978;2023-07-13T14:54:09;3.63;;;2.50;;
15240;SDS011;7723;52.170;9.978;2023-07-13T14:56:37;5.57;;;2.53;;
15240;SDS011;7723;52.170;9.978;2023-07-13T14:59:04;7.18;;;2.78;;
15240;SDS011;7723;52.170;9.978;2023-07-13T15:01:32;3.80;;;2.58;;
15240;SDS011;7723;52.170;9.978;2023-07-13T15:04:00;3.47;;;2.70;;
15240;SDS011;7723;52.170;9.978;2023-07-13T15:06:29;4.75;;;2.72;;
15240;SDS011;7723;52.170;9.978;2023-07-13T15:08:59;4.63;;;2.65;;
15240;SDS011;7723;52.170;9.978;2023-07-13T15:11:26;4.68;;;2.80;;
15240;SDS011;7723;52.170;9.978;2023-07-13T15:13:53;2.28;;;1.73;;
15240;SDS011;7723;52.170;9.978;2023-07-13T15:16:21;2.35;;;1.88;;